Huvudsida
METAR-TAF:

METAR-TAF

Flygplatser :

Ljungbyhed, Sverige

latitud: 56-04N, longitud: 013-12E, höjd: 43 m

Aktuellt väderrapport

Denna rapport gjordes för 30 minuter sedan, klockan 02:50 UTC
Vind 1 kt varierande vindriktning
Temperatur -1°C
Fuktighet 100%
Tryck 998 hPa
Sikt 10 km eller mer

METAR: ESTL 190250Z AUTO VRB01KT 9999NDV FEW023/// OVC051/// M01/M01 Q0998

Tid: 04:20 (03:20 UTC)


TAF: saknas

Aktuella väderrapporter och prognoser från 4000 flygplatser (METAR- och TAF-rapporter).

De tillgängliga stationerna syns som gula och röda prickar på kartan.

För musen över prickarna för att se namnen på stationerna.

Klicka sedan för att få väderrapporter och prognoser.

För att ändra kartan: Klicka på de gröna knapparna med ett svart kors på för att zooma in; den gröna knappen med ett streck på för att zooma ut; eller på de gröna pilarna för angränsande kartor.


METAR-TAF: